createdAt,value
2022-09-21T00:00:01.337Z,100.00
2022-09-21T00:05:03.982Z,100.00
2022-09-21T00:10:07.368Z,100.00
2022-09-21T00:15:12.453Z,100.00
2022-09-21T00:20:17.180Z,100.00
2022-09-21T00:25:20.732Z,100.00
2022-09-21T00:30:24.705Z,100.00
2022-09-21T00:35:27.378Z,100.00
2022-09-21T00:40:30.718Z,100.00
2022-09-21T00:45:35.053Z,99.49
2022-09-21T00:50:43.892Z,97.36
2022-09-21T00:55:51.236Z,97.60
2022-09-21T01:00:56.264Z,100.00
2022-09-21T01:05:58.731Z,100.00
2022-09-21T01:11:23.336Z,100.00
2022-09-21T01:16:34.419Z,100.00
2022-09-21T01:21:45.899Z,100.00
2022-09-21T01:27:15.141Z,100.00
2022-09-21T01:32:24.104Z,100.00
2022-09-21T01:37:36.166Z,100.00
2022-09-21T01:42:42.230Z,100.00
2022-09-21T01:47:49.582Z,100.00
2022-09-21T01:52:59.397Z,100.00
2022-09-21T01:58:08.100Z,100.00
2022-09-21T02:03:17.793Z,100.00
2022-09-21T02:08:20.431Z,100.00
2022-09-21T02:13:27.631Z,100.00
2022-09-21T02:18:41.947Z,100.00
2022-09-21T02:23:52.823Z,100.00
2022-09-21T02:29:01.501Z,100.00
2022-09-21T02:34:14.332Z,100.00
2022-09-21T02:39:20.258Z,100.00
2022-09-21T02:44:33.656Z,100.00
2022-09-21T02:49:43.889Z,100.00
2022-09-21T02:54:50.630Z,100.00
2022-09-21T02:59:53.641Z,100.00
2022-09-21T03:04:57.797Z,100.00
2022-09-21T03:10:00.272Z,100.00
2022-09-21T03:15:03.019Z,100.00
2022-09-21T03:20:08.134Z,100.00
2022-09-21T03:25:12.317Z,100.00
2022-09-21T03:30:15.090Z,100.00
2022-09-21T03:35:19.469Z,100.00
2022-09-21T03:40:22.196Z,100.00
2022-09-21T03:45:24.933Z,100.00
2022-09-21T03:50:30.046Z,100.00
2022-09-21T03:55:33.253Z,99.97
2022-09-21T04:00:36.427Z,100.00
2022-09-21T04:05:41.199Z,100.00
2022-09-21T04:10:44.185Z,100.00
2022-09-21T04:15:46.650Z,100.00
2022-09-21T04:20:50.512Z,100.00
2022-09-21T04:25:55.798Z,100.00
2022-09-21T04:30:58.338Z,100.00
2022-09-21T04:36:02.616Z,100.00
2022-09-21T04:41:05.551Z,100.00
2022-09-21T04:46:09.508Z,100.00
2022-09-21T04:51:14.945Z,100.00
2022-09-21T04:56:18.206Z,100.00
2022-09-21T05:01:20.864Z,100.00
2022-09-21T05:06:24.810Z,100.00
2022-09-21T05:11:27.902Z,98.47
2022-09-21T05:16:30.390Z,99.97
2022-09-21T05:21:34.239Z,100.00
2022-09-21T05:26:36.680Z,99.63
2022-09-21T05:31:47.013Z,100.00
2022-09-21T05:36:59.542Z,99.20
2022-09-21T05:42:03.124Z,97.32
2022-09-21T05:47:17.034Z,98.79
2022-09-21T05:52:29.318Z,96.03
2022-09-21T05:57:45.277Z,96.90
2022-09-21T06:03:30.074Z,97.87
2022-09-21T06:08:33.852Z,97.76
2022-09-21T06:13:37.439Z,96.55
2022-09-21T06:18:40.858Z,96.35
2022-09-21T06:23:44.814Z,98.83
2022-09-21T06:28:47.257Z,99.12
2022-09-21T06:33:49.698Z,100.00
2022-09-21T06:38:53.949Z,98.48
2022-09-21T06:43:57.254Z,97.87
2022-09-21T06:48:59.816Z,97.57
2022-09-21T06:54:03.985Z,97.41
2022-09-21T06:59:06.555Z,97.22
2022-09-21T07:04:09.587Z,97.42
2022-09-21T07:14:35.959Z,99.26
2022-09-21T07:19:38.491Z,98.20
2022-09-21T07:24:42.257Z,96.29
2022-09-21T07:29:44.972Z,95.71
2022-09-21T07:34:47.750Z,94.38
2022-09-21T07:39:51.952Z,93.63
2022-09-21T07:45:03.132Z,94.62
2022-09-21T07:50:07.495Z,91.97
2022-09-21T07:55:11.285Z,91.41
2022-09-21T08:00:14.354Z,88.91
2022-09-21T08:05:17.094Z,88.04
2022-09-21T08:10:20.937Z,90.59
2022-09-21T08:15:47.469Z,90.73
2022-09-21T08:20:54.317Z,87.42
2022-09-21T08:26:01.557Z,88.64
2022-09-21T08:31:08.309Z,87.36
2022-09-21T08:36:11.250Z,86.41
2022-09-21T08:41:19.899Z,87.23
2022-09-21T08:46:25.927Z,85.92
2022-09-21T08:51:33.717Z,84.56
2022-09-21T08:57:03.495Z,85.33
2022-09-21T09:02:09.092Z,85.50
2022-09-21T09:07:27.045Z,84.18
2022-09-21T09:12:41.350Z,83.00
2022-09-21T09:17:53.716Z,83.99
2022-09-21T09:23:04.728Z,84.32
2022-09-21T09:28:23.078Z,85.74
2022-09-21T09:33:29.013Z,84.07
2022-09-21T09:38:38.152Z,84.60
2022-09-21T09:43:58.477Z,82.47
2022-09-21T09:49:20.561Z,80.20
2022-09-21T09:54:28.862Z,81.90
2022-09-21T09:59:37.027Z,78.39
2022-09-21T10:04:56.019Z,77.39
2022-09-21T10:09:58.873Z,79.87
2022-09-21T10:15:03.808Z,75.73
2022-09-21T10:20:08.499Z,72.75
2022-09-21T10:25:16.702Z,60.53
2022-09-21T10:30:35.837Z,49.95
2022-09-21T10:35:50.092Z,51.09
2022-09-21T10:40:52.685Z,45.87
2022-09-21T10:45:58.153Z,47.26
2022-09-21T10:51:00.781Z,47.48
2022-09-21T10:56:21.886Z,47.13
2022-09-21T11:01:29.872Z,42.28
2022-09-21T11:06:40.186Z,38.24
2022-09-21T11:11:51.376Z,43.91
2022-09-21T11:16:59.112Z,48.32
2022-09-21T11:22:09.059Z,52.14
2022-09-21T11:27:16.737Z,52.35
2022-09-21T11:32:34.891Z,53.35
2022-09-21T11:37:51.156Z,52.63
2022-09-21T11:43:09.599Z,52.18
2022-09-21T11:48:28.362Z,44.06
2022-09-21T11:53:42.065Z,39.88
2022-09-21T11:58:53.177Z,36.75
2022-09-21T12:04:16.910Z,37.58
2022-09-21T12:09:40.943Z,39.52
2022-09-21T12:14:51.553Z,44.03
2022-09-21T12:20:04.532Z,36.37
2022-09-21T12:25:17.067Z,41.35
2022-09-21T12:30:22.267Z,46.12
2022-09-21T12:35:36.508Z,49.28
2022-09-21T12:40:43.515Z,49.85
2022-09-21T12:45:53.268Z,51.21
2022-09-21T12:51:05.844Z,53.02
2022-09-21T12:56:14.712Z,53.30
2022-09-21T13:01:28.220Z,54.54
2022-09-21T13:07:03.948Z,55.40
2022-09-21T13:12:12.025Z,57.12
2022-09-21T13:17:23.145Z,56.73
2022-09-21T13:22:31.232Z,55.67
2022-09-21T13:28:04.542Z,55.71
2022-09-21T13:33:32.378Z,53.84
2022-09-21T13:38:58.517Z,50.34
2022-09-21T13:44:05.225Z,47.13
2022-09-21T13:49:19.516Z,38.75
2022-09-21T13:54:26.813Z,35.80
2022-09-21T13:59:29.493Z,36.36
2022-09-21T14:04:37.108Z,34.63
2022-09-21T14:09:44.330Z,36.12
2022-09-21T14:15:12.895Z,34.21
2022-09-21T14:20:30.819Z,33.89
2022-09-21T14:25:52.107Z,34.16
2022-09-21T14:31:00.301Z,34.18
2022-09-21T14:36:09.078Z,35.58
2022-09-21T14:41:19.732Z,34.38
2022-09-21T14:46:38.443Z,35.88
2022-09-21T14:51:55.869Z,33.52
2022-09-21T14:57:19.588Z,36.49
2022-09-21T15:02:24.231Z,36.95
2022-09-21T15:08:00.264Z,41.03
2022-09-21T15:13:12.725Z,45.31
2022-09-21T15:18:21.544Z,46.81
2022-09-21T15:23:26.477Z,45.76
2022-09-21T15:29:04.968Z,51.37
2022-09-21T15:34:02.970Z,50.89
2022-09-21T15:39:06.698Z,53.14
2022-09-21T15:44:16.674Z,56.34
2022-09-21T15:49:21.951Z,51.58
2022-09-21T15:54:32.263Z,51.28
2022-09-21T15:59:36.867Z,52.99
2022-09-21T16:04:49.345Z,52.59
2022-09-21T16:09:53.721Z,51.58
2022-09-21T16:15:04.162Z,53.54
2022-09-21T16:20:17.351Z,53.53
2022-09-21T16:25:27.371Z,55.56
2022-09-21T16:30:44.704Z,53.89
2022-09-21T16:35:47.494Z,54.95
2022-09-21T16:40:51.809Z,55.01
2022-09-21T16:45:58.115Z,56.13
2022-09-21T16:51:01.187Z,58.05
2022-09-21T16:56:05.031Z,59.20
2022-09-21T17:01:14.064Z,59.97
2022-09-21T17:06:19.780Z,62.90
2022-09-21T17:11:22.291Z,68.14
2022-09-21T17:16:33.876Z,71.58
2022-09-21T17:21:36.648Z,73.33
2022-09-21T17:26:39.371Z,80.12
2022-09-21T17:31:43.148Z,79.94
2022-09-21T17:36:47.021Z,83.46
2022-09-21T17:41:58.230Z,86.04
2022-09-21T17:47:09.886Z,84.39
2022-09-21T17:52:39.000Z,86.55
2022-09-21T17:57:52.143Z,91.96
2022-09-21T18:02:57.154Z,92.25
2022-09-21T18:08:00.593Z,88.93
2022-09-21T18:13:24.052Z,95.03
2022-09-21T18:18:42.702Z,93.80
2022-09-21T18:23:56.115Z,94.64
2022-09-21T18:28:59.314Z,99.81
2022-09-21T18:34:22.220Z,92.62
2022-09-21T18:39:34.670Z,91.00
2022-09-21T18:44:44.246Z,89.78
2022-09-21T18:49:56.530Z,97.26
2022-09-21T18:54:59.245Z,100.00
2022-09-21T19:00:02.497Z,100.00
2022-09-21T19:05:07.623Z,99.74
2022-09-21T19:10:19.420Z,95.56
2022-09-21T19:15:55.559Z,100.00
2022-09-21T19:21:02.249Z,100.00
2022-09-21T19:26:13.226Z,100.00
2022-09-21T19:31:18.885Z,98.32
2022-09-21T19:36:24.356Z,100.00
2022-09-21T19:41:43.410Z,100.00
2022-09-21T19:46:58.003Z,94.46
2022-09-21T19:52:05.629Z,96.33
2022-09-21T19:57:31.709Z,100.00
2022-09-21T20:02:38.528Z,100.00
2022-09-21T20:07:50.228Z,100.00
2022-09-21T20:13:06.708Z,100.00
2022-09-21T20:18:23.329Z,100.00
2022-09-21T20:23:30.557Z,99.89
2022-09-21T20:28:33.565Z,100.00
2022-09-21T20:33:36.598Z,100.00
2022-09-21T20:38:40.613Z,100.00
2022-09-21T20:43:43.645Z,100.00
2022-09-21T20:48:46.131Z,100.00
2022-09-21T20:53:51.637Z,100.00
2022-09-21T20:58:54.562Z,98.04
2022-09-21T21:04:01.662Z,97.00
2022-09-21T21:09:06.042Z,100.00
2022-09-21T21:14:08.612Z,100.00
2022-09-21T21:19:11.448Z,100.00
2022-09-21T21:24:33.109Z,100.00
2022-09-21T21:29:35.557Z,100.00
2022-09-21T21:34:38.374Z,100.00
2022-09-21T21:39:42.507Z,99.83
2022-09-21T21:44:46.890Z,100.00
2022-09-21T21:49:49.468Z,100.00
2022-09-21T21:54:53.498Z,100.00
2022-09-21T21:59:55.982Z,100.00
2022-09-21T22:04:58.640Z,99.75
2022-09-21T22:10:03.001Z,98.77
2022-09-21T22:15:06.295Z,97.37
2022-09-21T22:20:10.253Z,100.00
2022-09-21T22:25:14.515Z,100.00
2022-09-21T22:30:17.237Z,100.00
2022-09-21T22:35:19.920Z,98.17
2022-09-21T22:40:23.883Z,95.83
2022-09-21T22:45:26.931Z,100.00
2022-09-21T22:50:30.226Z,100.00
2022-09-21T22:55:34.378Z,100.00
2022-09-21T23:00:36.990Z,100.00
2022-09-21T23:05:39.511Z,96.96
2022-09-21T23:10:43.532Z,97.13
2022-09-21T23:15:46.186Z,96.54
2022-09-21T23:20:57.254Z,100.00
2022-09-21T23:26:06.444Z,100.00
2022-09-21T23:31:11.898Z,100.00
2022-09-21T23:36:16.968Z,96.13
2022-09-21T23:41:23.399Z,94.99
2022-09-21T23:46:28.047Z,94.20
2022-09-21T23:51:30.943Z,93.20
2022-09-21T23:56:35.064Z,92.97
